sensor_id;sensor_type;location;lat;lon;timestamp;temperature;humidity
78647;DHT22;67961;43.460;3.762;2023-03-17T00:00:09;12.70;77.60
78647;DHT22;67961;43.460;3.762;2023-03-17T00:02:37;12.70;77.50
78647;DHT22;67961;43.460;3.762;2023-03-17T00:05:18;12.70;77.50
78647;DHT22;67961;43.460;3.762;2023-03-17T00:07:45;12.60;77.90
78647;DHT22;67961;43.460;3.762;2023-03-17T00:10:16;12.50;76.80
78647;DHT22;67961;43.460;3.762;2023-03-17T00:12:43;12.50;76.00
78647;DHT22;67961;43.460;3.762;2023-03-17T00:15:11;12.50;75.70
78647;DHT22;67961;43.460;3.762;2023-03-17T00:17:37;12.60;75.50
78647;DHT22;67961;43.460;3.762;2023-03-17T00:20:04;12.60;75.50
78647;DHT22;67961;43.460;3.762;2023-03-17T00:22:30;12.50;75.50
78647;DHT22;67961;43.460;3.762;2023-03-17T00:24:55;12.50;75.80
78647;DHT22;67961;43.460;3.762;2023-03-17T00:27:22;12.50;75.80
78647;DHT22;67961;43.460;3.762;2023-03-17T00:29:48;12.50;75.70
78647;DHT22;67961;43.460;3.762;2023-03-17T00:32:18;12.50;75.50
78647;DHT22;67961;43.460;3.762;2023-03-17T00:34:48;12.50;75.50
78647;DHT22;67961;43.460;3.762;2023-03-17T00:37:13;12.50;75.50
78647;DHT22;67961;43.460;3.762;2023-03-17T00:39:39;12.50;75.60
78647;DHT22;67961;43.460;3.762;2023-03-17T00:42:05;12.50;75.90
78647;DHT22;67961;43.460;3.762;2023-03-17T00:44:32;12.50;76.20
78647;DHT22;67961;43.460;3.762;2023-03-17T00:46:59;12.50;76.20
78647;DHT22;67961;43.460;3.762;2023-03-17T00:49:25;12.50;75.70
78647;DHT22;67961;43.460;3.762;2023-03-17T00:51:52;12.50;75.70
78647;DHT22;67961;43.460;3.762;2023-03-17T00:54:19;12.50;76.00
78647;DHT22;67961;43.460;3.762;2023-03-17T00:56:45;12.50;76.00
78647;DHT22;67961;43.460;3.762;2023-03-17T00:59:29;12.50;76.00
78647;DHT22;67961;43.460;3.762;2023-03-17T01:01:58;12.50;75.90
78647;DHT22;67961;43.460;3.762;2023-03-17T01:04:24;12.50;75.90
78647;DHT22;67961;43.460;3.762;2023-03-17T01:06:50;12.50;76.00
78647;DHT22;67961;43.460;3.762;2023-03-17T01:09:17;12.50;76.00
78647;DHT22;67961;43.460;3.762;2023-03-17T01:11:43;12.50;75.80
78647;DHT22;67961;43.460;3.762;2023-03-17T01:14:10;12.50;75.70
78647;DHT22;67961;43.460;3.762;2023-03-17T01:16:36;12.50;75.60
78647;DHT22;67961;43.460;3.762;2023-03-17T01:19:03;12.50;75.50
78647;DHT22;67961;43.460;3.762;2023-03-17T01:21:29;12.50;75.50
78647;DHT22;67961;43.460;3.762;2023-03-17T01:23:55;12.50;75.40
78647;DHT22;67961;43.460;3.762;2023-03-17T01:26:21;12.50;75.10
78647;DHT22;67961;43.460;3.762;2023-03-17T01:28:46;12.50;75.30
78647;DHT22;67961;43.460;3.762;2023-03-17T01:31:12;12.50;75.50
78647;DHT22;67961;43.460;3.762;2023-03-17T01:33:38;12.50;75.20
78647;DHT22;67961;43.460;3.762;2023-03-17T01:36:05;12.50;75.30
78647;DHT22;67961;43.460;3.762;2023-03-17T01:38:31;12.50;75.50
78647;DHT22;67961;43.460;3.762;2023-03-17T01:40:57;12.50;75.50
78647;DHT22;67961;43.460;3.762;2023-03-17T01:43:26;12.50;75.30
78647;DHT22;67961;43.460;3.762;2023-03-17T01:48:40;12.50;75.50
78647;DHT22;67961;43.460;3.762;2023-03-17T01:51:09;12.50;75.60
78647;DHT22;67961;43.460;3.762;2023-03-17T01:53:37;12.50;75.70
78647;DHT22;67961;43.460;3.762;2023-03-17T01:56:04;12.50;75.60
78647;DHT22;67961;43.460;3.762;2023-03-17T01:58:31;12.50;75.30
78647;DHT22;67961;43.460;3.762;2023-03-17T02:01:00;12.50;75.30
78647;DHT22;67961;43.460;3.762;2023-03-17T02:03:26;12.50;75.40
78647;DHT22;67961;43.460;3.762;2023-03-17T02:05:54;12.50;75.60
78647;DHT22;67961;43.460;3.762;2023-03-17T02:08:22;12.50;75.50
78647;DHT22;67961;43.460;3.762;2023-03-17T02:10:48;12.50;75.50
78647;DHT22;67961;43.460;3.762;2023-03-17T02:13:18;12.50;75.50
78647;DHT22;67961;43.460;3.762;2023-03-17T02:15:46;12.50;75.60
78647;DHT22;67961;43.460;3.762;2023-03-17T02:18:20;12.50;75.80
78647;DHT22;67961;43.460;3.762;2023-03-17T02:23:14;12.50;76.20
78647;DHT22;67961;43.460;3.762;2023-03-17T02:25:43;12.50;76.00
78647;DHT22;67961;43.460;3.762;2023-03-17T02:28:17;12.50;75.70
78647;DHT22;67961;43.460;3.762;2023-03-17T02:30:44;12.50;75.50
78647;DHT22;67961;43.460;3.762;2023-03-17T02:33:12;12.50;75.40
78647;DHT22;67961;43.460;3.762;2023-03-17T02:35:39;12.50;75.50
78647;DHT22;67961;43.460;3.762;2023-03-17T02:38:05;12.50;75.70
78647;DHT22;67961;43.460;3.762;2023-03-17T02:40:31;12.50;75.80
78647;DHT22;67961;43.460;3.762;2023-03-17T02:42:57;12.50;76.10
78647;DHT22;67961;43.460;3.762;2023-03-17T02:45:23;12.50;76.20
78647;DHT22;67961;43.460;3.762;2023-03-17T02:47:49;12.50;76.40
78647;DHT22;67961;43.460;3.762;2023-03-17T02:50:21;12.50;76.40
78647;DHT22;67961;43.460;3.762;2023-03-17T02:52:48;12.50;76.70
78647;DHT22;67961;43.460;3.762;2023-03-17T02:55:18;12.50;76.80
78647;DHT22;67961;43.460;3.762;2023-03-17T02:57:44;12.50;76.70
78647;DHT22;67961;43.460;3.762;2023-03-17T03:00:12;12.50;77.00
78647;DHT22;67961;43.460;3.762;2023-03-17T03:02:39;12.40;76.90
78647;DHT22;67961;43.460;3.762;2023-03-17T03:05:06;12.50;76.80
78647;DHT22;67961;43.460;3.762;2023-03-17T03:07:33;12.50;76.60
78647;DHT22;67961;43.460;3.762;2023-03-17T03:09:58;12.50;76.70
78647;DHT22;67961;43.460;3.762;2023-03-17T03:12:25;12.50;76.60
78647;DHT22;67961;43.460;3.762;2023-03-17T03:14:53;12.50;76.50
78647;DHT22;67961;43.460;3.762;2023-03-17T03:17:20;12.50;76.30
78647;DHT22;67961;43.460;3.762;2023-03-17T03:19:46;12.60;76.30
78647;DHT22;67961;43.460;3.762;2023-03-17T03:22:11;12.60;76.30
78647;DHT22;67961;43.460;3.762;2023-03-17T03:24:37;12.70;76.40
78647;DHT22;67961;43.460;3.762;2023-03-17T03:27:03;12.70;76.40
78647;DHT22;67961;43.460;3.762;2023-03-17T03:29:29;12.70;76.50
78647;DHT22;67961;43.460;3.762;2023-03-17T03:31:55;12.70;76.60
78647;DHT22;67961;43.460;3.762;2023-03-17T03:34:20;12.70;76.80
78647;DHT22;67961;43.460;3.762;2023-03-17T03:36:48;12.70;76.90
78647;DHT22;67961;43.460;3.762;2023-03-17T03:39:17;12.70;77.00
78647;DHT22;67961;43.460;3.762;2023-03-17T03:41:43;12.70;77.00
78647;DHT22;67961;43.460;3.762;2023-03-17T03:44:08;12.70;77.10
78647;DHT22;67961;43.460;3.762;2023-03-17T03:46:34;12.70;77.20
78647;DHT22;67961;43.460;3.762;2023-03-17T03:49:00;12.70;77.20
78647;DHT22;67961;43.460;3.762;2023-03-17T03:51:26;12.70;77.20
78647;DHT22;67961;43.460;3.762;2023-03-17T03:53:51;12.70;77.20
78647;DHT22;67961;43.460;3.762;2023-03-17T03:56:17;12.70;77.20
78647;DHT22;67961;43.460;3.762;2023-03-17T03:58:43;12.70;76.90
78647;DHT22;67961;43.460;3.762;2023-03-17T04:01:09;12.70;76.90
78647;DHT22;67961;43.460;3.762;2023-03-17T04:03:37;12.70;77.00
78647;DHT22;67961;43.460;3.762;2023-03-17T04:06:03;12.80;77.00
78647;DHT22;67961;43.460;3.762;2023-03-17T04:08:29;12.80;76.80
78647;DHT22;67961;43.460;3.762;2023-03-17T04:10:56;12.80;76.50
78647;DHT22;67961;43.460;3.762;2023-03-17T04:13:22;12.80;76.50
78647;DHT22;67961;43.460;3.762;2023-03-17T04:15:48;12.80;76.50
78647;DHT22;67961;43.460;3.762;2023-03-17T04:18:14;12.80;76.80
78647;DHT22;67961;43.460;3.762;2023-03-17T04:20:39;12.80;76.80
78647;DHT22;67961;43.460;3.762;2023-03-17T04:23:05;12.90;76.60
78647;DHT22;67961;43.460;3.762;2023-03-17T04:25:32;12.80;76.60
78647;DHT22;67961;43.460;3.762;2023-03-17T04:27:58;12.80;76.70
78647;DHT22;67961;43.460;3.762;2023-03-17T04:30:23;12.80;76.70
78647;DHT22;67961;43.460;3.762;2023-03-17T04:32:51;12.80;76.60
78647;DHT22;67961;43.460;3.762;2023-03-17T04:35:19;12.80;76.70
78647;DHT22;67961;43.460;3.762;2023-03-17T04:37:45;12.80;76.70
78647;DHT22;67961;43.460;3.762;2023-03-17T04:40:12;12.80;76.60
78647;DHT22;67961;43.460;3.762;2023-03-17T04:42:38;12.80;76.40
78647;DHT22;67961;43.460;3.762;2023-03-17T04:45:05;12.80;76.20
78647;DHT22;67961;43.460;3.762;2023-03-17T04:47:31;12.80;76.10
78647;DHT22;67961;43.460;3.762;2023-03-17T04:49:57;12.80;76.30
78647;DHT22;67961;43.460;3.762;2023-03-17T04:52:23;12.80;76.20
78647;DHT22;67961;43.460;3.762;2023-03-17T04:54:48;12.70;76.20
78647;DHT22;67961;43.460;3.762;2023-03-17T04:57:17;12.70;76.20
78647;DHT22;67961;43.460;3.762;2023-03-17T04:59:43;12.70;75.80
78647;DHT22;67961;43.460;3.762;2023-03-17T05:02:09;12.70;75.50
78647;DHT22;67961;43.460;3.762;2023-03-17T05:04:34;12.70;75.30
78647;DHT22;67961;43.460;3.762;2023-03-17T05:07:00;12.70;75.20
78647;DHT22;67961;43.460;3.762;2023-03-17T05:09:27;12.70;75.40
78647;DHT22;67961;43.460;3.762;2023-03-17T05:11:53;12.70;75.50
78647;DHT22;67961;43.460;3.762;2023-03-17T05:14:19;12.70;75.50
78647;DHT22;67961;43.460;3.762;2023-03-17T05:16:48;12.70;75.70
78647;DHT22;67961;43.460;3.762;2023-03-17T05:19:14;12.80;75.80
78647;DHT22;67961;43.460;3.762;2023-03-17T05:21:40;12.80;75.80
78647;DHT22;67961;43.460;3.762;2023-03-17T05:24:07;12.70;76.00
78647;DHT22;67961;43.460;3.762;2023-03-17T05:26:33;12.80;76.00
78647;DHT22;67961;43.460;3.762;2023-03-17T05:28:59;12.80;75.70
78647;DHT22;67961;43.460;3.762;2023-03-17T05:31:25;12.80;75.20
78647;DHT22;67961;43.460;3.762;2023-03-17T05:33:51;12.70;75.00
78647;DHT22;67961;43.460;3.762;2023-03-17T05:36:18;12.70;74.80
78647;DHT22;67961;43.460;3.762;2023-03-17T05:38:44;12.70;74.60
78647;DHT22;67961;43.460;3.762;2023-03-17T05:41:12;12.70;74.40
78647;DHT22;67961;43.460;3.762;2023-03-17T05:43:38;12.70;74.40
78647;DHT22;67961;43.460;3.762;2023-03-17T05:46:04;12.70;74.40
78647;DHT22;67961;43.460;3.762;2023-03-17T05:48:30;12.80;74.00
78647;DHT22;67961;43.460;3.762;2023-03-17T05:50:56;12.70;73.60
78647;DHT22;67961;43.460;3.762;2023-03-17T05:53:22;12.70;73.40
78647;DHT22;67961;43.460;3.762;2023-03-17T05:55:48;12.70;73.20
78647;DHT22;67961;43.460;3.762;2023-03-17T05:58:14;12.70;73.00
78647;DHT22;67961;43.460;3.762;2023-03-17T06:00:41;12.70;72.90
78647;DHT22;67961;43.460;3.762;2023-03-17T06:03:07;12.70;72.90
78647;DHT22;67961;43.460;3.762;2023-03-17T06:05:33;12.70;72.80
78647;DHT22;67961;43.460;3.762;2023-03-17T06:07:59;12.80;72.70
78647;DHT22;67961;43.460;3.762;2023-03-17T06:10:25;12.70;72.90
78647;DHT22;67961;43.460;3.762;2023-03-17T06:12:51;12.70;73.10
78647;DHT22;67961;43.460;3.762;2023-03-17T06:15:18;12.70;72.90
78647;DHT22;67961;43.460;3.762;2023-03-17T06:17:43;12.60;72.70
78647;DHT22;67961;43.460;3.762;2023-03-17T06:20:12;12.60;72.30
78647;DHT22;67961;43.460;3.762;2023-03-17T06:22:38;12.60;71.80
78647;DHT22;67961;43.460;3.762;2023-03-17T06:25:05;12.70;71.40
78647;DHT22;67961;43.460;3.762;2023-03-17T06:27:31;12.70;71.60
78647;DHT22;67961;43.460;3.762;2023-03-17T06:29:57;12.60;71.70
78647;DHT22;67961;43.460;3.762;2023-03-17T06:32:24;12.70;71.80
78647;DHT22;67961;43.460;3.762;2023-03-17T06:34:50;12.70;71.90
78647;DHT22;67961;43.460;3.762;2023-03-17T06:37:16;12.70;71.80
78647;DHT22;67961;43.460;3.762;2023-03-17T06:39:42;12.80;71.70
78647;DHT22;67961;43.460;3.762;2023-03-17T06:42:08;12.80;71.50
78647;DHT22;67961;43.460;3.762;2023-03-17T06:44:33;12.80;71.90
78647;DHT22;67961;43.460;3.762;2023-03-17T06:47:00;12.80;71.30
78647;DHT22;67961;43.460;3.762;2023-03-17T06:49:26;12.80;71.40
78647;DHT22;67961;43.460;3.762;2023-03-17T06:51:52;12.80;71.60
78647;DHT22;67961;43.460;3.762;2023-03-17T06:54:18;12.80;71.80
78647;DHT22;67961;43.460;3.762;2023-03-17T06:56:45;12.80;71.90
78647;DHT22;67961;43.460;3.762;2023-03-17T06:59:12;12.80;71.90
78647;DHT22;67961;43.460;3.762;2023-03-17T07:01:37;12.80;71.90
78647;DHT22;67961;43.460;3.762;2023-03-17T07:04:04;12.80;72.10
78647;DHT22;67961;43.460;3.762;2023-03-17T07:06:30;12.80;72.50
78647;DHT22;67961;43.460;3.762;2023-03-17T07:08:55;12.70;72.90
78647;DHT22;67961;43.460;3.762;2023-03-17T07:11:22;12.80;72.40
78647;DHT22;67961;43.460;3.762;2023-03-17T07:13:48;12.80;71.60
78647;DHT22;67961;43.460;3.762;2023-03-17T07:16:15;12.80;71.90
78647;DHT22;67961;43.460;3.762;2023-03-17T07:18:44;12.80;72.10
78647;DHT22;67961;43.460;3.762;2023-03-17T07:21:10;12.90;71.90
78647;DHT22;67961;43.460;3.762;2023-03-17T07:23:36;13.00;71.40
78647;DHT22;67961;43.460;3.762;2023-03-17T07:26:02;13.20;70.80
78647;DHT22;67961;43.460;3.762;2023-03-17T07:28:28;13.40;70.40
78647;DHT22;67961;43.460;3.762;2023-03-17T07:30:54;13.50;70.20
78647;DHT22;67961;43.460;3.762;2023-03-17T07:33:22;13.50;70.00
78647;DHT22;67961;43.460;3.762;2023-03-17T07:35:49;13.50;69.70
78647;DHT22;67961;43.460;3.762;2023-03-17T07:38:16;13.40;69.60
78647;DHT22;67961;43.460;3.762;2023-03-17T07:40:43;13.30;69.70
78647;DHT22;67961;43.460;3.762;2023-03-17T07:43:10;13.30;69.60
78647;DHT22;67961;43.460;3.762;2023-03-17T07:45:36;13.40;69.50
78647;DHT22;67961;43.460;3.762;2023-03-17T07:48:03;13.50;69.80
78647;DHT22;67961;43.460;3.762;2023-03-17T07:50:30;13.50;69.70
78647;DHT22;67961;43.460;3.762;2023-03-17T07:52:56;13.50;69.70
78647;DHT22;67961;43.460;3.762;2023-03-17T07:55:22;13.70;69.70
78647;DHT22;67961;43.460;3.762;2023-03-17T07:57:48;13.70;69.50
78647;DHT22;67961;43.460;3.762;2023-03-17T08:00:14;13.90;69.40
78647;DHT22;67961;43.460;3.762;2023-03-17T08:02:41;13.90;69.20
78647;DHT22;67961;43.460;3.762;2023-03-17T08:05:08;13.90;69.30
78647;DHT22;67961;43.460;3.762;2023-03-17T08:07:34;14.00;69.30
78647;DHT22;67961;43.460;3.762;2023-03-17T08:10:02;14.10;69.40
78647;DHT22;67961;43.460;3.762;2023-03-17T08:12:29;14.20;69.20
78647;DHT22;67961;43.460;3.762;2023-03-17T08:14:55;14.30;68.70
78647;DHT22;67961;43.460;3.762;2023-03-17T08:17:21;14.40;68.20
78647;DHT22;67961;43.460;3.762;2023-03-17T08:19:52;14.50;68.00
78647;DHT22;67961;43.460;3.762;2023-03-17T08:22:17;14.50;67.80
78647;DHT22;67961;43.460;3.762;2023-03-17T08:24:43;14.40;67.70
78647;DHT22;67961;43.460;3.762;2023-03-17T08:27:09;14.40;67.80
78647;DHT22;67961;43.460;3.762;2023-03-17T08:29:35;14.50;68.00
78647;DHT22;67961;43.460;3.762;2023-03-17T08:32:00;14.60;67.70
78647;DHT22;67961;43.460;3.762;2023-03-17T08:34:26;14.70;67.00
78647;DHT22;67961;43.460;3.762;2023-03-17T08:36:52;15.20;66.10
78647;DHT22;67961;43.460;3.762;2023-03-17T08:39:18;17.10;61.60
78647;DHT22;67961;43.460;3.762;2023-03-17T08:41:44;18.00;59.20
78647;DHT22;67961;43.460;3.762;2023-03-17T08:44:11;16.90;60.60
78647;DHT22;67961;43.460;3.762;2023-03-17T08:46:37;18.10;59.70
78647;DHT22;67961;43.460;3.762;2023-03-17T08:49:04;18.50;57.50
78647;DHT22;67961;43.460;3.762;2023-03-17T08:51:33;17.60;60.00
78647;DHT22;67961;43.460;3.762;2023-03-17T08:53:59;16.80;61.80
78647;DHT22;67961;43.460;3.762;2023-03-17T08:56:25;16.00;63.90
78647;DHT22;67961;43.460;3.762;2023-03-17T08:58:52;15.80;64.40
78647;DHT22;67961;43.460;3.762;2023-03-17T09:01:18;15.70;64.20
78647;DHT22;67961;43.460;3.762;2023-03-17T09:03:46;16.00;63.90
78647;DHT22;67961;43.460;3.762;2023-03-17T09:06:12;16.00;63.20
78647;DHT22;67961;43.460;3.762;2023-03-17T09:08:40;16.00;62.50
78647;DHT22;67961;43.460;3.762;2023-03-17T09:11:22;16.10;62.50
78647;DHT22;67961;43.460;3.762;2023-03-17T09:13:48;16.20;62.20
78647;DHT22;67961;43.460;3.762;2023-03-17T09:16:15;16.40;61.20
78647;DHT22;67961;43.460;3.762;2023-03-17T09:18:43;16.40;60.90
78647;DHT22;67961;43.460;3.762;2023-03-17T09:21:10;16.60;60.90
78647;DHT22;67961;43.460;3.762;2023-03-17T09:23:36;16.60;60.00
78647;DHT22;67961;43.460;3.762;2023-03-17T09:26:02;16.70;59.70
78647;DHT22;67961;43.460;3.762;2023-03-17T09:28:28;17.00;59.80
78647;DHT22;67961;43.460;3.762;2023-03-17T09:30:58;17.00;59.50
78647;DHT22;67961;43.460;3.762;2023-03-17T09:33:25;17.10;58.80
78647;DHT22;67961;43.460;3.762;2023-03-17T09:35:51;17.20;58.30
78647;DHT22;67961;43.460;3.762;2023-03-17T09:38:18;17.40;58.00
78647;DHT22;67961;43.460;3.762;2023-03-17T09:40:56;17.20;57.80
78647;DHT22;67961;43.460;3.762;2023-03-17T09:43:46;16.90;58.30
78647;DHT22;67961;43.460;3.762;2023-03-17T09:49:10;17.30;57.30
78647;DHT22;67961;43.460;3.762;2023-03-17T09:51:38;17.20;57.50
78647;DHT22;67961;43.460;3.762;2023-03-17T09:56:56;17.20;58.00
78647;DHT22;67961;43.460;3.762;2023-03-17T09:59:33;17.40;57.90
78647;DHT22;67961;43.460;3.762;2023-03-17T10:02:00;17.60;57.00
78647;DHT22;67961;43.460;3.762;2023-03-17T10:04:25;17.70;57.00
78647;DHT22;67961;43.460;3.762;2023-03-17T10:06:59;17.40;58.00
78647;DHT22;67961;43.460;3.762;2023-03-17T10:12:33;17.50;58.30
78647;DHT22;67961;43.460;3.762;2023-03-17T10:17:54;18.00;56.10
78647;DHT22;67961;43.460;3.762;2023-03-17T10:20:32;18.00;56.90
78647;DHT22;67961;43.460;3.762;2023-03-17T10:23:05;18.00;56.80
78647;DHT22;67961;43.460;3.762;2023-03-17T10:25:33;18.00;56.10
78647;DHT22;67961;43.460;3.762;2023-03-17T10:28:10;18.00;56.40
78647;DHT22;67961;43.460;3.762;2023-03-17T10:30:40;17.50;57.50
78647;DHT22;67961;43.460;3.762;2023-03-17T10:33:06;16.90;58.70
78647;DHT22;67961;43.460;3.762;2023-03-17T10:35:32;17.00;58.30
78647;DHT22;67961;43.460;3.762;2023-03-17T10:38:01;16.80;59.20
78647;DHT22;67961;43.460;3.762;2023-03-17T10:40:28;16.90;59.20
78647;DHT22;67961;43.460;3.762;2023-03-17T10:43:06;16.80;59.80
78647;DHT22;67961;43.460;3.762;2023-03-17T10:45:37;16.80;58.80
78647;DHT22;67961;43.460;3.762;2023-03-17T10:48:09;17.20;58.10
78647;DHT22;67961;43.460;3.762;2023-03-17T10:50:39;17.50;57.90
78647;DHT22;67961;43.460;3.762;2023-03-17T10:53:20;17.50;58.00
78647;DHT22;67961;43.460;3.762;2023-03-17T10:55:59;17.80;57.60
78647;DHT22;67961;43.460;3.762;2023-03-17T10:58:47;17.50;57.80
78647;DHT22;67961;43.460;3.762;2023-03-17T11:01:38;17.50;58.10
78647;DHT22;67961;43.460;3.762;2023-03-17T11:04:27;17.60;58.60
78647;DHT22;67961;43.460;3.762;2023-03-17T11:06:57;17.60;58.40
78647;DHT22;67961;43.460;3.762;2023-03-17T11:09:25;17.30;58.40
78647;DHT22;67961;43.460;3.762;2023-03-17T11:12:05;17.10;58.80
78647;DHT22;67961;43.460;3.762;2023-03-17T11:14:31;16.90;59.30
78647;DHT22;67961;43.460;3.762;2023-03-17T11:17:02;16.80;60.00
78647;DHT22;67961;43.460;3.762;2023-03-17T11:22:14;17.00;59.20
78647;DHT22;67961;43.460;3.762;2023-03-17T11:30:00;16.10;61.50
78647;DHT22;67961;43.460;3.762;2023-03-17T11:38:16;16.60;61.00
78647;DHT22;67961;43.460;3.762;2023-03-17T11:40:57;16.80;60.60
78647;DHT22;67961;43.460;3.762;2023-03-17T11:43:41;16.80;60.30
78647;DHT22;67961;43.460;3.762;2023-03-17T11:46:35;16.80;60.70
78647;DHT22;67961;43.460;3.762;2023-03-17T11:49:20;16.30;61.80
78647;DHT22;67961;43.460;3.762;2023-03-17T11:54:53;16.10;61.70
78647;DHT22;67961;43.460;3.762;2023-03-17T11:57:26;16.10;62.00
78647;DHT22;67961;43.460;3.762;2023-03-17T12:02:28;16.10;62.00
78647;DHT22;67961;43.460;3.762;2023-03-17T12:05:05;16.10;62.00
78647;DHT22;67961;43.460;3.762;2023-03-17T12:07:42;16.20;61.00
78647;DHT22;67961;43.460;3.762;2023-03-17T12:10:46;16.10;61.00
78647;DHT22;67961;43.460;3.762;2023-03-17T12:16:12;16.00;61.80
78647;DHT22;67961;43.460;3.762;2023-03-17T12:18:41;16.00;62.10
78647;DHT22;67961;43.460;3.762;2023-03-17T12:21:31;15.70;62.70
78647;DHT22;67961;43.460;3.762;2023-03-17T12:24:17;15.60;63.30
78647;DHT22;67961;43.460;3.762;2023-03-17T12:27:37;15.60;63.60
78647;DHT22;67961;43.460;3.762;2023-03-17T12:30:02;15.40;64.20
78647;DHT22;67961;43.460;3.762;2023-03-17T12:32:47;15.20;64.60
78647;DHT22;67961;43.460;3.762;2023-03-17T12:35:30;15.40;64.60
78647;DHT22;67961;43.460;3.762;2023-03-17T12:38:04;15.30;64.50
78647;DHT22;67961;43.460;3.762;2023-03-17T12:43:58;15.20;65.40
78647;DHT22;67961;43.460;3.762;2023-03-17T12:55:08;15.30;65.50
78647;DHT22;67961;43.460;3.762;2023-03-17T12:57:41;15.30;65.40
78647;DHT22;67961;43.460;3.762;2023-03-17T13:00:24;15.20;65.90
78647;DHT22;67961;43.460;3.762;2023-03-17T13:05:48;15.20;65.50
78647;DHT22;67961;43.460;3.762;2023-03-17T13:08:22;15.20;65.90
78647;DHT22;67961;43.460;3.762;2023-03-17T13:10:48;15.20;66.20
78647;DHT22;67961;43.460;3.762;2023-03-17T13:13:40;15.30;66.30
78647;DHT22;67961;43.460;3.762;2023-03-17T13:16:32;15.40;66.20
78647;DHT22;67961;43.460;3.762;2023-03-17T13:19:20;15.40;66.00
78647;DHT22;67961;43.460;3.762;2023-03-17T13:27:10;15.30;67.00
78647;DHT22;67961;43.460;3.762;2023-03-17T13:29:39;15.30;67.00
78647;DHT22;67961;43.460;3.762;2023-03-17T13:34:53;15.20;67.30
78647;DHT22;67961;43.460;3.762;2023-03-17T13:37:22;15.20;67.60
78647;DHT22;67961;43.460;3.762;2023-03-17T13:51:23;15.40;67.90
78647;DHT22;67961;43.460;3.762;2023-03-17T13:53:56;15.50;67.70
78647;DHT22;67961;43.460;3.762;2023-03-17T13:59:17;15.60;67.40
78647;DHT22;67961;43.460;3.762;2023-03-17T14:02:17;15.50;67.50
78647;DHT22;67961;43.460;3.762;2023-03-17T14:05:03;15.60;67.20
78647;DHT22;67961;43.460;3.762;2023-03-17T14:07:41;15.60;67.30
78647;DHT22;67961;43.460;3.762;2023-03-17T14:10:16;15.30;67.80
78647;DHT22;67961;43.460;3.762;2023-03-17T14:13:11;15.30;67.80
78647;DHT22;67961;43.460;3.762;2023-03-17T14:15:36;15.20;67.80
78647;DHT22;67961;43.460;3.762;2023-03-17T14:21:22;15.10;68.60
78647;DHT22;67961;43.460;3.762;2023-03-17T14:23:59;15.20;68.30
78647;DHT22;67961;43.460;3.762;2023-03-17T14:26:30;15.30;68.20
78647;DHT22;67961;43.460;3.762;2023-03-17T14:29:01;15.30;68.10
78647;DHT22;67961;43.460;3.762;2023-03-17T14:31:28;15.30;68.40
78647;DHT22;67961;43.460;3.762;2023-03-17T14:33:55;15.40;67.90
78647;DHT22;67961;43.460;3.762;2023-03-17T14:36:21;15.50;68.00
78647;DHT22;67961;43.460;3.762;2023-03-17T14:38:56;15.50;67.80
78647;DHT22;67961;43.460;3.762;2023-03-17T14:41:24;15.50;67.50
78647;DHT22;67961;43.460;3.762;2023-03-17T14:43:52;15.40;67.80
78647;DHT22;67961;43.460;3.762;2023-03-17T14:46:26;15.50;67.50
78647;DHT22;67961;43.460;3.762;2023-03-17T14:49:00;15.50;67.30
78647;DHT22;67961;43.460;3.762;2023-03-17T14:51:32;15.50;67.50
78647;DHT22;67961;43.460;3.762;2023-03-17T14:54:08;15.40;67.70
78647;DHT22;67961;43.460;3.762;2023-03-17T14:56:46;15.40;67.70
78647;DHT22;67961;43.460;3.762;2023-03-17T15:00:18;15.30;68.20
78647;DHT22;67961;43.460;3.762;2023-03-17T15:07:40;15.20;68.20
78647;DHT22;67961;43.460;3.762;2023-03-17T15:10:19;15.10;68.20
78647;DHT22;67961;43.460;3.762;2023-03-17T15:12:45;15.10;68.30
78647;DHT22;67961;43.460;3.762;2023-03-17T15:15:23;15.10;68.30
78647;DHT22;67961;43.460;3.762;2023-03-17T15:17:53;15.10;68.30
78647;DHT22;67961;43.460;3.762;2023-03-17T15:20:20;15.00;67.90
78647;DHT22;67961;43.460;3.762;2023-03-17T15:22:48;15.00;68.20
78647;DHT22;67961;43.460;3.762;2023-03-17T15:27:51;15.00;68.40
78647;DHT22;67961;43.460;3.762;2023-03-17T15:30:18;14.90;68.30
78647;DHT22;67961;43.460;3.762;2023-03-17T15:32:48;15.00;68.10
78647;DHT22;67961;43.460;3.762;2023-03-17T15:35:15;15.00;67.60
78647;DHT22;67961;43.460;3.762;2023-03-17T15:37:42;15.00;67.60
78647;DHT22;67961;43.460;3.762;2023-03-17T15:40:08;14.90;67.00
78647;DHT22;67961;43.460;3.762;2023-03-17T15:42:36;14.80;67.00
78647;DHT22;67961;43.460;3.762;2023-03-17T15:45:04;14.80;67.20
78647;DHT22;67961;43.460;3.762;2023-03-17T15:47:33;14.80;67.00
78647;DHT22;67961;43.460;3.762;2023-03-17T15:50:22;14.70;66.80
78647;DHT22;67961;43.460;3.762;2023-03-17T15:52:50;14.60;66.80
78647;DHT22;67961;43.460;3.762;2023-03-17T15:55:25;14.60;67.20
78647;DHT22;67961;43.460;3.762;2023-03-17T15:57:54;14.60;67.30
78647;DHT22;67961;43.460;3.762;2023-03-17T16:00:22;14.50;67.80
78647;DHT22;67961;43.460;3.762;2023-03-17T16:02:51;14.50;67.50
78647;DHT22;67961;43.460;3.762;2023-03-17T16:05:21;14.50;67.30
78647;DHT22;67961;43.460;3.762;2023-03-17T16:07:48;14.50;67.40
78647;DHT22;67961;43.460;3.762;2023-03-17T16:10:18;14.50;67.50
78647;DHT22;67961;43.460;3.762;2023-03-17T16:12:45;14.50;67.50
78647;DHT22;67961;43.460;3.762;2023-03-17T16:15:31;14.50;67.80
78647;DHT22;67961;43.460;3.762;2023-03-17T16:18:02;14.30;67.90
78647;DHT22;67961;43.460;3.762;2023-03-17T16:20:46;14.40;67.90
78647;DHT22;67961;43.460;3.762;2023-03-17T16:23:18;14.40;67.50
78647;DHT22;67961;43.460;3.762;2023-03-17T16:25:46;14.40;67.70
78647;DHT22;67961;43.460;3.762;2023-03-17T16:28:21;14.40;67.70
78647;DHT22;67961;43.460;3.762;2023-03-17T16:30:48;14.30;67.70
78647;DHT22;67961;43.460;3.762;2023-03-17T16:33:25;14.30;67.90
78647;DHT22;67961;43.460;3.762;2023-03-17T16:35:52;14.30;67.80
78647;DHT22;67961;43.460;3.762;2023-03-17T16:38:21;14.30;68.20
78647;DHT22;67961;43.460;3.762;2023-03-17T16:40:50;14.30;68.00
78647;DHT22;67961;43.460;3.762;2023-03-17T16:43:26;14.30;67.90
78647;DHT22;67961;43.460;3.762;2023-03-17T16:45:55;14.20;67.90
78647;DHT22;67961;43.460;3.762;2023-03-17T16:48:22;14.20;68.10
78647;DHT22;67961;43.460;3.762;2023-03-17T16:50:48;14.20;68.10
78647;DHT22;67961;43.460;3.762;2023-03-17T16:53:14;14.20;68.50
78647;DHT22;67961;43.460;3.762;2023-03-17T16:55:40;14.10;68.30
78647;DHT22;67961;43.460;3.762;2023-03-17T17:00:44;14.00;69.00
78647;DHT22;67961;43.460;3.762;2023-03-17T17:03:10;14.00;69.10
78647;DHT22;67961;43.460;3.762;2023-03-17T17:05:36;14.00;69.20
78647;DHT22;67961;43.460;3.762;2023-03-17T17:08:03;13.90;69.30
78647;DHT22;67961;43.460;3.762;2023-03-17T17:10:30;14.00;69.20
78647;DHT22;67961;43.460;3.762;2023-03-17T17:13:00;14.00;69.40